Time;durP1;ratioP1;P1;durP2;ratioP2;P2;SDS_P1;SDS_P2;PMS_P1;PMS_P2;Temp;Humidity;BMP_temperature;BMP_pressure;BME280_temperature;BME280_humidity;BME280_pressure;Samples;Min_cycle;Max_cycle;Signal;HPM_P1;HPM_P2
2022/09/07 00:00:48;;;;;;;561.00;513.50;;;16.70;99.90;;;;;;4959770;28;20832;-83
2022/09/07 00:03:15;;;;;;;562.43;514.50;;;17.10;99.90;;;;;;4961678;28;20458;-83
2022/09/07 00:05:44;;;;;;;566.50;518.60;;;16.90;99.90;;;;;;4970193;28;20457;-82
2022/09/07 00:08:11;;;;;;;589.43;538.57;;;16.70;99.90;;;;;;4981686;28;20488;-83
2022/09/07 00:10:38;;;;;;;598.13;547.23;;;17.30;99.90;;;;;;4979427;28;20480;-83
2022/09/07 00:13:06;;;;;;;601.33;548.93;;;17.40;99.90;;;;;;4979314;28;20453;-83
2022/09/07 00:15:34;;;;;;;622.93;569.93;;;17.50;99.90;;;;;;4973507;28;20461;-82
2022/09/07 00:18:00;;;;;;;619.67;567.47;;;16.70;99.90;;;;;;4960305;28;20881;-83
2022/09/07 00:20:27;;;;;;;637.83;583.80;;;17.30;99.90;;;;;;4964298;28;20477;-83
2022/09/07 00:22:55;;;;;;;656.67;600.90;;;17.10;99.90;;;;;;4979221;28;20461;-82
2022/09/07 00:25:22;;;;;;;682.50;624.20;;;16.70;99.90;;;;;;4978624;28;20456;-83
2022/09/07 00:27:49;;;;;;;722.53;661.83;;;17.30;99.90;;;;;;4978509;28;20481;-83
2022/09/07 00:30:15;;;;;;;745.87;683.33;;;17.40;99.90;;;;;;4976976;28;20481;-83
2022/09/07 00:32:42;;;;;;;753.03;688.27;;;17.30;99.90;;;;;;4959822;28;20466;-83
2022/09/07 00:35:11;;;;;;;768.33;701.93;;;17.10;99.90;;;;;;4959476;28;20468;-83
2022/09/07 00:37:38;;;;;;;750.53;684.47;;;17.50;99.90;;;;;;4959400;28;20541;-83
2022/09/07 00:40:07;;;;;;;771.77;705.10;;;17.00;99.90;;;;;;4959136;28;20793;-83
2022/09/07 00:42:34;;;;;;;766.77;698.80;;;17.00;99.90;;;;;;4959722;28;20947;-83
2022/09/07 00:45:07;;;;;;;749.17;681.80;;;17.10;99.90;;;;;;4959360;28;20458;-83
2022/09/07 00:47:41;;;;;;;759.30;689.73;;;17.10;99.90;;;;;;4962474;28;20469;-83
2022/09/07 00:50:13;;;;;;;767.07;697.17;;;17.00;99.90;;;;;;4969798;28;20487;-84
2022/09/07 00:52:42;;;;;;;800.43;729.47;;;17.10;99.90;;;;;;4986431;28;20463;-83
2022/09/07 00:55:13;;;;;;;795.63;723.67;;;17.10;99.90;;;;;;4984499;28;20463;-83
2022/09/07 00:57:45;;;;;;;798.40;727.70;;;17.50;99.90;;;;;;4984916;28;20454;-83
2022/09/07 01:00:12;;;;;;;810.60;736.80;;;17.30;99.90;;;;;;4983823;28;20471;-83
2022/09/07 01:02:39;;;;;;;791.10;718.03;;;16.90;99.90;;;;;;4986322;28;20464;-84
2022/09/07 01:05:13;;;;;;;805.57;731.47;;;16.80;99.90;;;;;;4984336;28;20461;-83
2022/09/07 01:07:40;;;;;;;824.87;749.07;;;16.90;99.90;;;;;;4966563;28;20879;-84
2022/09/07 01:10:09;;;;;;;820.40;743.83;;;17.20;99.90;;;;;;4968891;28;20473;-83
2022/09/07 01:12:37;;;;;;;832.30;755.80;;;17.00;99.90;;;;;;4986241;28;20465;-83
2022/09/07 01:15:05;;;;;;;834.57;757.90;;;17.20;99.90;;;;;;4985357;28;20463;-83
2022/09/07 01:17:45;;;;;;;822.20;745.27;;;16.90;99.90;;;;;;4968229;28;20459;-83
2022/09/07 01:20:40;;;;;;;825.13;747.13;;;17.10;99.90;;;;;;4967393;28;20484;-83
2022/09/07 01:23:27;;;;;;;830.10;752.87;;;17.00;99.90;;;;;;4966593;28;20445;-83
2022/09/07 01:26:13;;;;;;;838.73;760.23;;;17.00;99.90;;;;;;4965239;28;20442;-83
2022/09/07 01:28:42;;;;;;;850.73;771.50;;;16.80;99.90;;;;;;4965630;28;20473;-84
2022/09/07 01:31:18;;;;;;;849.80;770.10;;;17.00;99.90;;;;;;4972242;28;20900;-83
2022/09/07 01:33:55;;;;;;;857.07;776.87;;;16.90;99.90;;;;;;4970331;28;20452;-83
2022/09/07 01:36:32;;;;;;;861.07;781.90;;;16.90;99.90;;;;;;4964506;28;20456;-83
2022/09/07 01:39:01;;;;;;;883.70;802.83;;;16.90;99.90;;;;;;4963469;28;20448;-83
2022/09/07 01:41:32;;;;;;;885.07;804.57;;;17.20;99.90;;;;;;4963766;28;20477;-83
2022/09/07 01:44:06;;;;;;;890.03;809.43;;;17.00;99.90;;;;;;4963429;28;20450;-81
2022/09/07 01:46:38;;;;;;;873.37;793.47;;;17.00;99.90;;;;;;4963927;28;20468;-83
2022/09/07 01:49:10;;;;;;;901.10;820.33;;;17.10;99.90;;;;;;4964154;28;20447;-83
2022/09/07 01:51:42;;;;;;;894.90;814.30;;;17.20;99.90;;;;;;4962884;28;20482;-83
2022/09/07 01:54:14;;;;;;;887.70;807.40;;;17.10;99.90;;;;;;4962988;28;20459;-81
2022/09/07 01:56:45;;;;;;;902.27;821.47;;;16.80;99.90;;;;;;4962488;28;20441;-83
2022/09/07 01:59:20;;;;;;;895.20;816.20;;;16.90;99.90;;;;;;4961836;28;20532;-83
2022/09/07 02:01:50;;;;;;;890.87;812.17;;;17.10;99.90;;;;;;4972252;28;20456;-83
2022/09/07 02:04:20;;;;;;;901.80;822.67;;;17.30;99.90;;;;;;4976795;28;20451;-83
2022/09/07 02:06:50;;;;;;;897.23;817.87;;;17.10;99.90;;;;;;4962006;28;20457;-83
2022/09/07 02:09:22;;;;;;;918.00;836.70;;;17.10;99.90;;;;;;4967389;28;20452;-83
2022/09/07 02:11:50;;;;;;;911.40;830.50;;;17.00;99.90;;;;;;4981394;28;20530;-83
2022/09/07 02:14:22;;;;;;;914.37;832.93;;;17.10;99.90;;;;;;4979892;28;20481;-83
2022/09/07 02:16:55;;;;;;;911.97;830.80;;;17.20;99.90;;;;;;4982512;28;20440;-83
2022/09/07 02:19:25;;;;;;;914.77;832.70;;;17.10;99.90;;;;;;4962325;29;20450;-84
2022/09/07 02:21:57;;;;;;;909.60;827.87;;;17.20;99.90;;;;;;4962637;29;20561;-83
2022/09/07 02:24:28;;;;;;;914.20;833.03;;;17.40;99.90;;;;;;4962044;29;20449;-83
2022/09/07 02:26:57;;;;;;;913.10;831.20;;;17.30;99.90;;;;;;4961631;29;20606;-83
2022/09/07 02:29:25;;;;;;;911.07;829.30;;;17.10;99.90;;;;;;4961590;29;20458;-83
2022/09/07 02:31:52;;;;;;;915.47;832.40;;;17.10;99.90;;;;;;4961996;29;20958;-83
2022/09/07 02:34:19;;;;;;;932.70;848.80;;;17.20;99.90;;;;;;4962589;28;20480;-83
2022/09/07 02:36:48;;;;;;;936.53;851.93;;;17.10;99.90;;;;;;4961330;28;20469;-83
2022/09/07 02:39:15;;;;;;;950.40;865.20;;;16.90;99.90;;;;;;4978893;28;20462;-83
2022/09/07 02:41:44;;;;;;;939.13;853.47;;;16.80;99.90;;;;;;4980853;28;20823;-83
2022/09/07 02:44:15;;;;;;;939.77;854.97;;;16.80;99.90;;;;;;4964296;28;20453;-82
2022/09/07 02:46:57;;;;;;;937.37;852.10;;;16.80;99.90;;;;;;4961623;28;20463;-83
2022/09/07 02:49:38;;;;;;;933.47;848.67;;;16.80;99.90;;;;;;4978115;28;20448;-83
2022/09/07 02:52:14;;;;;;;939.80;854.73;;;16.60;99.90;;;;;;4980846;28;20460;-83
2022/09/07 02:54:58;;;;;;;938.20;853.03;;;16.70;99.90;;;;;;4979542;28;20454;-83
2022/09/07 02:57:36;;;;;;;933.73;849.23;;;16.60;99.90;;;;;;4979950;28;20456;-83
2022/09/07 03:00:07;;;;;;;940.70;854.90;;;16.70;99.90;;;;;;4980329;28;20542;-83
2022/09/07 03:02:44;;;;;;;929.47;844.97;;;16.40;99.90;;;;;;4979241;28;20446;-83
2022/09/07 03:05:19;;;;;;;917.13;832.90;;;16.60;99.90;;;;;;4961299;28;20440;-82
2022/09/07 03:07:51;;;;;;;910.63;826.20;;;16.40;99.90;;;;;;4960766;28;20485;-83
2022/09/07 03:10:18;;;;;;;924.33;839.10;;;16.30;99.90;;;;;;4960476;28;20480;-83
2022/09/07 03:12:47;;;;;;;914.20;828.90;;;16.50;99.90;;;;;;4961264;28;20460;-83
2022/09/07 03:15:15;;;;;;;924.57;840.03;;;16.40;99.90;;;;;;4960735;28;20531;-83
2022/09/07 03:17:45;;;;;;;924.83;839.03;;;16.40;99.90;;;;;;4966301;28;20826;-83
2022/09/07 03:20:11;;;;;;;910.40;826.37;;;16.40;99.90;;;;;;4980086;28;20480;-83
2022/09/07 03:22:38;;;;;;;917.93;834.57;;;16.50;99.90;;;;;;4974633;28;20452;-83
2022/09/07 03:25:07;;;;;;;903.30;820.50;;;16.40;99.90;;;;;;4988177;28;21093;-83
2022/09/07 03:27:33;;;;;;;914.73;828.50;;;16.40;99.90;;;;;;4999042;28;20998;-83
2022/09/07 03:30:00;;;;;;;915.20;831.30;;;16.30;99.90;;;;;;4998952;28;20482;-83
2022/09/07 03:32:31;;;;;;;925.10;838.63;;;16.10;99.90;;;;;;4996558;28;20461;-83
2022/09/07 03:34:59;;;;;;;941.40;854.00;;;16.20;99.90;;;;;;4978993;28;20483;-82
2022/09/07 03:37:26;;;;;;;933.03;844.43;;;16.30;99.90;;;;;;4976536;28;20466;-83
2022/09/07 03:39:53;;;;;;;915.53;828.87;;;16.20;99.90;;;;;;4960151;28;20487;-82
2022/09/07 03:42:20;;;;;;;919.90;833.03;;;16.30;99.90;;;;;;4979860;28;20454;-83
2022/09/07 03:44:48;;;;;;;943.00;853.63;;;16.20;99.90;;;;;;4978673;28;20829;-83
2022/09/07 03:47:15;;;;;;;941.77;852.90;;;16.10;99.90;;;;;;4979087;28;20461;-82
2022/09/07 03:49:41;;;;;;;939.30;851.00;;;16.10;99.90;;;;;;4978222;28;20475;-83
2022/09/07 03:52:09;;;;;;;946.40;856.87;;;15.90;99.90;;;;;;4978993;28;20462;-82
2022/09/07 03:54:36;;;;;;;938.27;849.07;;;15.80;99.90;;;;;;4977675;28;20458;-82
2022/09/07 03:57:03;;;;;;;934.23;844.77;;;15.80;99.90;;;;;;4978714;28;20462;-82
2022/09/07 03:59:30;;;;;;;924.67;834.97;;;15.90;99.90;;;;;;4971264;28;20493;-82
2022/09/07 04:01:56;;;;;;;917.10;828.27;;;16.10;99.90;;;;;;4959366;28;20463;-82
2022/09/07 04:04:23;;;;;;;920.20;832.83;;;15.90;99.90;;;;;;4959422;28;20468;-83
2022/09/07 04:06:50;;;;;;;902.83;816.53;;;16.10;99.90;;;;;;4959735;28;20466;-83
2022/09/07 04:09:18;;;;;;;901.63;815.07;;;16.10;99.90;;;;;;4959855;28;20479;-82
2022/09/07 04:11:44;;;;;;;911.50;822.87;;;16.20;99.90;;;;;;4971869;28;20803;-83
2022/09/07 04:14:11;;;;;;;920.93;832.83;;;16.20;99.90;;;;;;4978674;28;20459;-83
2022/09/07 04:16:38;;;;;;;917.17;828.57;;;16.10;99.90;;;;;;4976142;28;20842;-83
2022/09/07 04:19:05;;;;;;;913.17;824.97;;;16.10;99.90;;;;;;4977102;28;20451;-84
2022/09/07 04:21:33;;;;;;;918.33;829.57;;;16.10;99.90;;;;;;4983287;28;20476;-82
2022/09/07 04:24:00;;;;;;;916.47;828.23;;;16.20;99.90;;;;;;4977885;28;20462;-80
2022/09/07 04:26:30;;;;;;;911.80;824.93;;;16.00;99.90;;;;;;4968301;28;20460;-82
2022/09/07 04:28:57;;;;;;;895.23;810.90;;;16.10;99.90;;;;;;4968330;28;20482;-80
2022/09/07 04:31:24;;;;;;;906.27;821.17;;;15.90;99.90;;;;;;4967336;28;20475;-82
2022/09/07 04:33:52;;;;;;;910.90;826.03;;;16.10;99.90;;;;;;4977782;28;20459;-81
2022/09/07 04:36:20;;;;;;;915.47;829.80;;;15.90;99.90;;;;;;4969114;28;20452;-82
2022/09/07 04:38:53;;;;;;;900.60;815.70;;;15.90;99.90;;;;;;4960317;28;20452;-82
2022/09/07 04:41:19;;;;;;;914.27;828.37;;;16.00;99.90;;;;;;4974625;28;20479;-82
2022/09/07 04:43:48;;;;;;;904.40;819.30;;;15.90;99.90;;;;;;4980208;28;20462;-81
2022/09/07 04:46:19;;;;;;;910.20;826.37;;;15.90;99.90;;;;;;4984675;28;20451;-82
2022/09/07 04:48:48;;;;;;;901.77;817.67;;;15.90;99.90;;;;;;4984994;28;20473;-82
2022/09/07 04:51:16;;;;;;;907.13;822.20;;;15.90;99.90;;;;;;4980438;28;20533;-81
2022/09/07 04:53:43;;;;;;;915.17;829.93;;;15.80;99.90;;;;;;4980847;28;20502;-82
2022/09/07 04:56:09;;;;;;;903.23;818.50;;;15.70;99.90;;;;;;4976845;28;20465;-81
2022/09/07 04:58:36;;;;;;;910.90;826.23;;;15.70;99.90;;;;;;4978044;28;20451;-82
2022/09/07 05:01:06;;;;;;;914.90;829.20;;;15.60;99.90;;;;;;4978174;28;20475;-81
2022/09/07 05:03:35;;;;;;;917.10;832.70;;;15.50;99.90;;;;;;4980135;28;20455;-80
2022/09/07 05:06:02;;;;;;;919.97;835.17;;;15.50;99.90;;;;;;5004765;23;20884;-78
2022/09/07 05:08:32;;;;;;;941.03;855.90;;;15.40;99.90;;;;;;4992644;28;20484;-78
2022/09/07 05:10:58;;;;;;;917.90;834.83;;;15.50;99.90;;;;;;4992983;28;20462;-78
2022/09/07 05:13:25;;;;;;;901.17;817.93;;;15.50;99.90;;;;;;4992649;28;20529;-77
2022/09/07 05:15:52;;;;;;;900.70;817.60;;;15.70;99.90;;;;;;4992720;28;20494;-79
2022/09/07 05:18:20;;;;;;;912.37;828.87;;;15.80;99.90;;;;;;4990809;28;20446;-79
2022/09/07 05:20:47;;;;;;;932.50;846.73;;;15.90;99.90;;;;;;4982021;28;20480;-79
2022/09/07 05:23:13;;;;;;;922.03;837.30;;;15.70;99.90;;;;;;4980675;28;20459;-79
2022/09/07 05:25:46;;;;;;;936.53;852.20;;;15.80;99.90;;;;;;4983214;28;20478;-86
2022/09/07 05:28:13;;;;;;;911.20;827.93;;;15.80;99.90;;;;;;4977593;28;20482;-86
2022/09/07 05:30:40;;;;;;;919.93;834.90;;;15.70;99.90;;;;;;4992651;28;20454;-79
2022/09/07 05:33:07;;;;;;;907.27;822.90;;;15.80;99.90;;;;;;4987963;28;20817;-77
2022/09/07 05:35:36;;;;;;;909.67;825.13;;;15.80;99.90;;;;;;5000246;28;20473;-79
2022/09/07 05:38:02;;;;;;;899.57;815.73;;;15.80;99.90;;;;;;5000633;28;21756;-79
2022/09/07 05:40:33;;;;;;;912.07;827.20;;;16.00;99.90;;;;;;4988863;28;20831;-85
2022/09/07 05:43:09;;;;;;;916.37;831.87;;;15.90;99.90;;;;;;4991382;28;20461;-85
2022/09/07 05:45:36;;;;;;;948.40;862.73;;;16.00;99.90;;;;;;4989310;28;20498;-84
2022/09/07 05:48:03;;;;;;;913.33;829.90;;;16.00;99.90;;;;;;4992550;28;20479;-84
2022/09/07 05:50:29;;;;;;;919.10;833.50;;;16.10;99.90;;;;;;4978532;28;20972;-83
2022/09/07 05:52:58;;;;;;;908.50;824.30;;;16.20;99.90;;;;;;4991252;28;20489;-85
2022/09/07 05:55:25;;;;;;;905.63;822.23;;;16.30;99.90;;;;;;4989367;28;20987;-85
2022/09/07 05:57:52;;;;;;;899.47;817.10;;;16.50;99.90;;;;;;4989505;28;20541;-85
2022/09/07 06:00:20;;;;;;;891.10;808.60;;;16.60;99.90;;;;;;4986891;28;20990;-85
2022/09/07 06:02:48;;;;;;;897.30;814.23;;;16.70;99.90;;;;;;4986462;28;20459;-85
2022/09/07 06:05:16;;;;;;;902.40;819.93;;;16.90;99.90;;;;;;4981491;28;20488;-85
2022/09/07 06:07:46;;;;;;;904.10;821.73;;;16.90;99.90;;;;;;4989939;28;20468;-84
2022/09/07 06:10:14;;;;;;;894.43;812.13;;;17.00;99.90;;;;;;4991124;28;20516;-83
2022/09/07 06:12:45;;;;;;;866.40;786.70;;;17.10;99.90;;;;;;4987489;28;20480;-84
2022/09/07 06:15:12;;;;;;;863.90;785.57;;;17.10;99.90;;;;;;4989786;28;20467;-84
2022/09/07 06:17:38;;;;;;;850.63;773.73;;;17.10;99.90;;;;;;5001280;28;20455;-83
2022/09/07 06:20:07;;;;;;;835.07;759.33;;;17.20;99.90;;;;;;4994303;28;20942;-83
2022/09/07 06:22:36;;;;;;;832.50;758.03;;;17.20;99.90;;;;;;4983024;28;20472;-81
2022/09/07 06:25:02;;;;;;;822.93;749.33;;;17.10;99.90;;;;;;4988405;28;20497;-81
2022/09/07 06:27:31;;;;;;;811.80;740.20;;;17.20;99.90;;;;;;4996893;28;20456;-82
2022/09/07 06:29:57;;;;;;;807.23;736.13;;;17.20;99.90;;;;;;4997978;28;20482;-82
2022/09/07 06:32:24;;;;;;;797.83;727.47;;;17.30;99.90;;;;;;4987059;28;20457;-84
2022/09/07 06:34:51;;;;;;;797.73;727.90;;;17.40;99.90;;;;;;4979588;28;20480;-84
2022/09/07 06:37:18;;;;;;;794.93;727.23;;;17.50;99.90;;;;;;4977352;28;20476;-84
2022/09/07 06:39:45;;;;;;;796.00;729.43;;;17.50;99.90;;;;;;4989500;28;20451;-83
2022/09/07 06:42:11;;;;;;;809.53;743.63;;;17.50;99.90;;;;;;4987368;28;20460;-83
2022/09/07 06:44:39;;;;;;;805.50;739.93;;;17.50;99.90;;;;;;4982690;28;20478;-84
2022/09/07 06:47:06;;;;;;;809.87;744.03;;;17.70;99.90;;;;;;4983963;28;20466;-83
2022/09/07 06:49:33;;;;;;;812.10;747.20;;;17.90;99.90;;;;;;4984403;28;20485;-83
2022/09/07 06:51:59;;;;;;;816.00;752.70;;;17.90;99.90;;;;;;4998733;28;20860;-82
2022/09/07 06:54:26;;;;;;;818.47;757.73;;;18.10;99.90;;;;;;5002581;28;20483;-81
2022/09/07 06:56:53;;;;;;;809.07;751.73;;;18.20;99.90;;;;;;5000210;28;20467;-81
2022/09/07 06:59:20;;;;;;;799.33;744.23;;;18.20;99.90;;;;;;5004507;28;20450;-80
2022/09/07 07:01:48;;;;;;;816.57;762.70;;;18.30;99.90;;;;;;4999380;28;20473;-82
2022/09/07 07:04:15;;;;;;;834.50;779.83;;;18.30;99.90;;;;;;5005081;28;20455;-82
2022/09/07 07:06:42;;;;;;;837.13;783.03;;;18.50;99.90;;;;;;4999245;28;20815;-81
2022/09/07 07:09:12;;;;;;;812.47;761.60;;;18.50;99.90;;;;;;4993088;28;20471;-81
2022/09/07 07:11:38;;;;;;;846.90;793.30;;;18.70;99.90;;;;;;4995569;28;20867;-76
2022/09/07 07:14:05;;;;;;;755.77;710.33;;;18.90;99.90;;;;;;5003182;28;20456;-81
2022/09/07 07:16:32;;;;;;;705.00;665.63;;;18.90;99.90;;;;;;5001057;28;20469;-82
2022/09/07 07:19:00;;;;;;;620.20;590.00;;;19.00;99.90;;;;;;4984918;28;20464;-85
2022/09/07 07:21:27;;;;;;;606.57;578.57;;;19.30;99.90;;;;;;4978664;28;20462;-84
2022/09/07 07:23:53;;;;;;;477.73;459.80;;;19.20;99.90;;;;;;4991974;28;20457;-84
2022/09/07 07:26:25;;;;;;;383.70;370.10;;;19.30;99.90;;;;;;4994987;28;20474;-84
2022/09/07 07:28:54;;;;;;;369.77;357.80;;;19.40;99.90;;;;;;4993715;28;20488;-84
2022/09/07 07:31:22;;;;;;;158.83;153.37;;;19.40;99.90;;;;;;4992904;28;20513;-84
2022/09/07 07:34:02;;;;;;;129.27;124.87;;;19.40;99.90;;;;;;4982088;28;20455;-84
2022/09/07 07:36:30;;;;;;;202.07;195.67;;;19.30;99.90;;;;;;4993756;28;20474;-84
2022/09/07 07:38:57;;;;;;;65.33;62.77;;;19.40;99.90;;;;;;4977644;28;20508;-85
2022/09/07 07:41:29;;;;;;;49.23;47.13;;;19.40;99.90;;;;;;4999848;28;20454;-83
2022/09/07 07:43:58;;;;;;;33.43;32.00;;;19.50;99.90;;;;;;4998449;28;20490;-83
2022/09/07 07:46:26;;;;;;;104.67;101.00;;;19.50;99.90;;;;;;5001119;28;20464;-83
2022/09/07 07:48:54;;;;;;;84.83;80.93;;;19.60;99.90;;;;;;5001575;28;20491;-83
2022/09/07 07:51:21;;;;;;;172.90;167.23;;;19.70;99.90;;;;;;5001679;28;20455;-83
2022/09/07 07:53:49;;;;;;;92.90;89.40;;;20.00;99.90;;;;;;5002570;28;20426;-84
2022/09/07 07:56:16;;;;;;;166.37;160.93;;;20.00;99.90;;;;;;5000836;28;20478;-84
2022/09/07 07:58:46;;;;;;;91.93;88.50;;;20.20;99.90;;;;;;5001923;28;20490;-84
2022/09/07 08:01:14;;;;;;;26.90;25.47;;;20.30;99.90;;;;;;5002159;28;21017;-83
2022/09/07 08:03:43;;;;;;;11.23;10.43;;;20.60;99.90;;;;;;5001443;28;20459;-83
2022/09/07 08:06:12;;;;;;;11.10;10.17;;;20.70;99.90;;;;;;5002784;28;20858;-84
2022/09/07 08:08:39;;;;;;;12.60;6.43;;;20.80;99.90;;;;;;5004153;28;20463;-85
2022/09/07 08:11:08;;;;;;;6.17;2.87;;;20.80;99.90;;;;;;5003412;28;20455;-84
2022/09/07 08:13:37;;;;;;;6.37;2.73;;;20.80;99.90;;;;;;5004112;28;20469;-83
2022/09/07 08:16:04;;;;;;;8.13;2.37;;;20.70;99.90;;;;;;5004000;28;20480;-84
2022/09/07 08:18:33;;;;;;;6.00;3.07;;;20.80;99.90;;;;;;5003511;28;20467;-85
2022/09/07 08:21:01;;;;;;;7.23;2.80;;;20.90;99.90;;;;;;5002452;28;20544;-84
2022/09/07 08:23:28;;;;;;;5.33;2.90;;;20.80;99.90;;;;;;4999923;28;20496;-85
2022/09/07 08:25:57;;;;;;;5.97;2.27;;;21.10;99.90;;;;;;4997634;28;20473;-84
2022/09/07 08:28:26;;;;;;;4.37;1.90;;;21.40;99.90;;;;;;4997750;28;20461;-84
2022/09/07 08:30:53;;;;;;;5.27;1.73;;;21.90;99.90;;;;;;4996629;28;20485;-83
2022/09/07 08:33:20;;;;;;;5.10;1.80;;;21.90;99.90;;;;;;4995553;28;20465;-85
2022/09/07 08:35:58;;;;;;;5.00;2.10;;;22.20;99.90;;;;;;4994229;28;20474;-84
2022/09/07 08:38:25;;;;;;;4.70;1.87;;;22.40;99.90;;;;;;4993691;28;20486;-85
2022/09/07 08:40:53;;;;;;;9.60;2.67;;;22.80;99.90;;;;;;4993400;28;20463;-86
2022/09/07 08:43:32;;;;;;;5.33;2.00;;;23.20;99.20;;;;;;4993435;28;20469;-85
2022/09/07 08:46:05;;;;;;;4.23;1.63;;;23.40;97.10;;;;;;4993349;28;20486;-85
2022/09/07 08:48:34;;;;;;;8.80;1.77;;;23.20;98.00;;;;;;4993482;28;20453;-86
2022/09/07 08:51:08;;;;;;;4.27;1.63;;;23.30;96.50;;;;;;4993550;28;20482;-85
2022/09/07 08:53:41;;;;;;;8.93;2.20;;;23.90;96.70;;;;;;4993369;28;20459;-85
2022/09/07 08:56:13;;;;;;;4.90;1.80;;;24.00;96.80;;;;;;4993055;28;20471;-85
2022/09/07 08:58:44;;;;;;;4.30;1.57;;;24.30;93.50;;;;;;4993019;28;20457;-85
2022/09/07 09:01:12;;;;;;;4.67;1.53;;;24.40;95.50;;;;;;4993027;28;20830;-85
2022/09/07 09:03:41;;;;;;;4.87;1.77;;;24.70;93.60;;;;;;4993033;28;20481;-85
2022/09/07 09:06:15;;;;;;;5.27;1.60;;;24.90;89.90;;;;;;4993048;28;20481;-85
2022/09/07 09:08:53;;;;;;;6.80;1.90;;;25.20;87.80;;;;;;4993610;28;21017;-85
2022/09/07 09:11:25;;;;;;;5.83;1.93;;;25.30;86.40;;;;;;4997338;28;20478;-85
2022/09/07 09:14:04;;;;;;;7.27;2.30;;;25.10;87.20;;;;;;4996991;28;20517;-85
2022/09/07 09:16:37;;;;;;;5.50;2.00;;;25.50;86.10;;;;;;4996833;28;20464;-86
2022/09/07 09:19:22;;;;;;;4.47;1.93;;;25.30;86.50;;;;;;4996633;28;20450;-85
2022/09/07 09:21:50;;;;;;;6.40;2.17;;;25.00;84.50;;;;;;4996069;28;20461;-85
2022/09/07 09:24:19;;;;;;;14.40;3.10;;;25.70;87.20;;;;;;4995779;28;20549;-86
2022/09/07 09:26:51;;;;;;;8.93;3.17;;;25.10;82.50;;;;;;4995916;28;20838;-86
2022/09/07 09:29:21;;;;;;;7.17;2.37;;;25.10;81.60;;;;;;4996123;28;20908;-86
2022/09/07 09:31:48;;;;;;;5.60;2.13;;;25.00;85.60;;;;;;4996004;28;20451;-86
2022/09/07 09:34:17;;;;;;;5.60;2.10;;;25.80;79.10;;;;;;4995637;28;20449;-87
2022/09/07 09:36:46;;;;;;;6.20;1.80;;;26.20;78.50;;;;;;4995895;28;20484;-85
2022/09/07 09:39:30;;;;;;;5.90;2.10;;;26.20;78.20;;;;;;4995607;28;20456;-86
2022/09/07 09:41:59;;;;;;;5.40;1.80;;;26.80;72.70;;;;;;4994665;28;20520;-86
2022/09/07 09:44:32;;;;;;;5.60;1.70;;;27.20;67.30;;;;;;4995527;28;20448;-86
2022/09/07 09:47:00;;;;;;;6.10;1.77;;;27.40;67.70;;;;;;4995514;28;20457;-85
2022/09/07 09:49:33;;;;;;;9.17;2.23;;;27.60;64.70;;;;;;4995730;28;20478;-86
2022/09/07 09:52:03;;;;;;;6.67;1.83;;;27.70;62.40;;;;;;4990323;28;20455;-83
2022/09/07 09:54:32;;;;;;;5.83;1.90;;;27.30;63.20;;;;;;4989294;28;20824;-80
2022/09/07 09:56:59;;;;;;;5.97;1.60;;;27.30;65.50;;;;;;5003465;28;20545;-80
2022/09/07 09:59:30;;;;;;;5.43;2.10;;;27.80;61.00;;;;;;4999719;28;20458;-82
2022/09/07 10:02:16;;;;;;;4.40;1.53;;;28.30;57.90;;;;;;5000698;28;20880;-83
2022/09/07 10:04:43;;;;;;;5.73;2.30;;;28.00;61.40;;;;;;4996641;28;20485;-81
2022/09/07 10:07:20;;;;;;;5.23;2.10;;;28.40;59.30;;;;;;4986083;28;20465;-81
2022/09/07 10:09:50;;;;;;;9.40;4.57;;;28.30;55.30;;;;;;4988347;28;20844;-82
2022/09/07 10:12:28;;;;;;;5.60;2.53;;;27.70;57.20;;;;;;5002069;28;20455;-83
2022/09/07 10:14:57;;;;;;;5.43;2.37;;;27.30;58.30;;;;;;5005730;28;20478;-81
2022/09/07 10:17:29;;;;;;;6.70;2.77;;;26.50;61.50;;;;;;5003720;28;20450;-83
2022/09/07 10:20:00;;;;;;;7.00;2.87;;;25.80;64.50;;;;;;4997224;28;20456;-83
2022/09/07 10:22:33;;;;;;;7.60;2.97;;;25.40;69.20;;;;;;5000511;28;21105;-84
2022/09/07 10:25:00;;;;;;;8.27;3.00;;;25.20;73.20;;;;;;4988399;28;20591;-84
2022/09/07 10:27:31;;;;;;;7.30;2.80;;;24.50;74.20;;;;;;4981201;28;20838;-84
2022/09/07 10:30:01;;;;;;;9.67;2.90;;;24.70;72.50;;;;;;4990596;28;20459;-82
2022/09/07 10:32:51;;;;;;;7.00;3.30;;;24.70;74.40;;;;;;5001586;28;20458;-85
2022/09/07 10:35:25;;;;;;;7.40;3.80;;;24.30;74.90;;;;;;4986983;28;20572;-83
2022/09/07 10:38:02;;;;;;;7.43;3.97;;;24.10;73.80;;;;;;5003674;28;20457;-83
2022/09/07 10:40:33;;;;;;;6.57;3.10;;;24.10;75.70;;;;;;5002283;28;20461;-85
2022/09/07 10:43:22;;;;;;;6.33;3.07;;;24.30;74.00;;;;;;4956806;29;20836;-86
2022/09/07 10:46:24;;;;;;;8.70;3.03;;;24.20;73.90;;;;;;4966014;28;20474;-85
2022/09/07 10:49:07;;;;;;;9.43;3.50;;;24.70;74.40;;;;;;4989523;28;20446;-86
2022/09/07 10:51:40;;;;;;;6.90;2.83;;;25.00;73.20;;;;;;4994656;28;20480;-86
2022/09/07 10:54:15;;;;;;;9.00;3.73;;;25.10;69.70;;;;;;4982012;28;20523;-83
2022/09/07 10:56:52;;;;;;;8.57;4.77;;;24.80;71.40;;;;;;4996408;28;20448;-83
2022/09/07 10:59:32;;;;;;;8.30;4.00;;;24.80;72.30;;;;;;5000495;28;20457;-83
2022/09/07 11:02:10;;;;;;;8.00;4.30;;;24.70;74.20;;;;;;4993558;28;20456;-83
2022/09/07 11:07:15;;;;;;;8.20;3.17;;;25.60;64.10;;;;;;4980397;28;20459;-83
2022/09/07 11:09:57;;;;;;;6.88;2.90;;;26.40;58.90;;;;;;4981188;28;20469;-83
2022/09/07 11:12:28;;;;;;;6.50;2.87;;;26.30;58.70;;;;;;4982076;28;20263;-84
2022/09/07 11:15:04;;;;;;;7.13;4.43;;;26.10;57.30;;;;;;4981198;28;20474;-84
2022/09/07 11:17:45;;;;;;;5.40;3.00;;;26.20;57.60;;;;;;4979535;28;20457;-84
2022/09/07 11:20:21;;;;;;;6.10;3.10;;;26.40;57.10;;;;;;4981172;28;20851;-83
2022/09/07 11:22:51;;;;;;;6.80;3.13;;;26.20;58.70;;;;;;4973166;28;20459;-84
2022/09/07 11:25:24;;;;;;;8.90;4.23;;;26.10;58.30;;;;;;4961587;29;20475;-83
2022/09/07 11:27:56;;;;;;;9.30;3.60;;;25.60;58.30;;;;;;4963347;28;20452;-83
2022/09/07 11:30:27;;;;;;;7.80;3.47;;;25.40;58.30;;;;;;4961580;29;20447;-83
2022/09/07 11:33:01;;;;;;;8.23;3.90;;;25.90;58.60;;;;;;4960715;28;20437;-84
2022/09/07 11:35:34;;;;;;;9.17;3.97;;;26.00;58.60;;;;;;4962289;29;20484;-84
2022/09/07 11:38:10;;;;;;;12.23;4.30;;;25.90;58.50;;;;;;4966020;28;20456;-85
2022/09/07 11:40:43;;;;;;;7.40;3.80;;;26.50;59.80;;;;;;4962557;28;20483;-84
2022/09/07 11:43:18;;;;;;;6.40;3.50;;;26.50;55.60;;;;;;4961339;29;20515;-83
2022/09/07 11:45:51;;;;;;;7.77;3.90;;;27.10;53.10;;;;;;4960942;29;20475;-84
2022/09/07 11:48:23;;;;;;;8.83;4.00;;;27.60;50.90;;;;;;4961735;28;20460;-84
2022/09/07 11:50:52;;;;;;;7.43;3.23;;;28.00;46.10;;;;;;4961561;29;20510;-84
2022/09/07 11:53:23;;;;;;;7.13;2.90;;;27.60;47.00;;;;;;4976492;28;20458;-85
2022/09/07 11:55:56;;;;;;;6.83;3.10;;;27.20;48.10;;;;;;4978952;28;20481;-84
2022/09/07 11:58:57;;;;;;;7.90;3.50;;;26.80;50.10;;;;;;4962732;29;20451;-84
2022/09/07 12:01:33;;;;;;;5.93;2.23;;;26.70;52.20;;;;;;4959309;28;20478;-84
2022/09/07 12:04:28;;;;;;;6.60;2.47;;;27.00;50.40;;;;;;4980555;28;20529;-82
2022/09/07 12:07:20;;;;;;;5.77;2.70;;;28.10;45.80;;;;;;4967644;28;20498;-84
2022/09/07 12:10:06;;;;;;;13.57;3.17;;;27.20;46.30;;;;;;4962049;29;20463;-82
2022/09/07 12:12:57;;;;;;;7.70;3.17;;;27.20;44.40;;;;;;4961502;29;20509;-85
2022/09/07 12:15:32;;;;;;;11.30;3.20;;;27.10;46.10;;;;;;4963589;28;20472;-84
2022/09/07 12:18:13;;;;;;;7.13;2.50;;;27.30;45.30;;;;;;4980099;28;20433;-85
2022/09/07 12:20:43;;;;;;;13.63;6.93;;;27.00;44.80;;;;;;4971758;28;20491;-83
2022/09/07 12:23:29;;;;;;;9.37;2.30;;;26.90;44.50;;;;;;4967618;28;20450;-84
2022/09/07 12:26:29;;;;;;;8.83;2.20;;;26.60;42.90;;;;;;4980805;28;20838;-80
2022/09/07 12:29:18;;;;;;;8.53;2.60;;;26.80;41.20;;;;;;4977390;28;20454;-86
2022/09/07 12:31:47;;;;;;;9.37;1.63;;;26.40;42.40;;;;;;4980493;28;21023;-83
2022/09/07 12:35:00;;;;;;;8.30;2.13;;;27.30;39.00;;;;;;4965954;28;20451;-82
2022/09/07 12:37:42;;;;;;;4.87;1.63;;;27.70;36.50;;;;;;4984226;28;20443;-85
2022/09/07 12:40:57;;;;;;;7.03;1.80;;;27.60;34.10;;;;;;4988433;28;20489;-84
2022/09/07 12:43:51;;;;;;;8.73;2.10;;;28.30;32.30;;;;;;4979302;28;20455;-86